createdAt,value
2018-01-18T00:01:39.925Z,23.23
2018-01-18T00:04:06.523Z,15.80
2018-01-18T00:06:34.639Z,11.70
2018-01-18T00:09:01.139Z,6.90
2018-01-18T00:11:27.573Z,51.70
2018-01-18T00:13:55.435Z,14.93
2018-01-18T00:16:22.089Z,14.83
2018-01-18T00:18:48.632Z,28.27
2018-01-18T00:35:29.604Z,10.67
2018-01-18T00:37:56.063Z,20.03
2018-01-18T00:40:22.473Z,17.67
2018-01-18T00:42:48.920Z,17.67
2018-01-18T00:45:16.624Z,14.63
2018-01-18T00:47:43.073Z,8.33
2018-01-18T00:50:10.247Z,8.77
2018-01-18T00:52:37.032Z,9.87
2018-01-18T00:55:03.500Z,7.63
2018-01-18T00:57:30.046Z,12.97
2018-01-18T00:59:56.516Z,4.10
2018-01-18T01:02:22.972Z,10.60
2018-01-18T01:04:49.460Z,14.40
2018-01-18T01:07:16.184Z,13.97
2018-01-18T01:09:42.697Z,15.93
2018-01-18T01:12:09.151Z,8.97
2018-01-18T01:14:36.345Z,19.10
2018-01-18T01:17:02.734Z,13.43
2018-01-18T01:19:30.766Z,5.40
2018-01-18T01:21:57.220Z,13.80
2018-01-18T01:24:24.415Z,11.97
2018-01-18T01:26:50.908Z,9.03
2018-01-18T01:29:17.304Z,13.20
2018-01-18T01:31:43.872Z,15.43
2018-01-18T01:34:10.421Z,11.67
2018-01-18T01:36:37.116Z,9.47
2018-01-18T01:39:04.452Z,9.87
2018-01-18T01:41:31.294Z,26.10
2018-01-18T01:43:58.004Z,11.13
2018-01-18T01:46:26.484Z,8.40
2018-01-18T01:48:52.950Z,11.00
2018-01-18T01:51:19.429Z,15.13
2018-01-18T01:53:45.878Z,12.27
2018-01-18T01:56:12.724Z,13.57
2018-01-18T01:58:40.321Z,8.70
2018-01-18T02:01:07.603Z,9.03
2018-01-18T02:03:34.400Z,11.80
2018-01-18T02:06:01.742Z,8.63
2018-01-18T02:08:28.289Z,11.47
2018-01-18T02:10:54.711Z,11.90
2018-01-18T02:13:21.120Z,7.37
2018-01-18T02:15:48.263Z,10.37
2018-01-18T02:18:16.440Z,27.27
2018-01-18T02:20:42.984Z,9.00
2018-01-18T02:23:09.420Z,8.07
2018-01-18T02:25:36.683Z,5.53
2018-01-18T02:28:03.095Z,8.60
2018-01-18T02:30:29.404Z,6.53
2018-01-18T02:32:55.792Z,14.97
2018-01-18T02:35:23.887Z,9.03
2018-01-18T02:37:50.381Z,3.97
2018-01-18T02:40:16.878Z,11.97
2018-01-18T02:42:43.338Z,12.13
2018-01-18T02:45:09.771Z,6.50
2018-01-18T02:47:37.094Z,3.90
2018-01-18T02:50:03.564Z,6.80
2018-01-18T02:52:29.990Z,8.03
2018-01-18T02:54:56.844Z,3.97
2018-01-18T02:57:23.263Z,6.30
2018-01-18T02:59:50.076Z,6.00
2018-01-18T03:02:17.261Z,8.13
2018-01-18T03:04:43.769Z,9.17
2018-01-18T03:07:10.247Z,14.33
2018-01-18T03:09:36.803Z,11.03
2018-01-18T03:12:03.405Z,4.43
2018-01-18T03:14:29.779Z,14.67
2018-01-18T03:16:56.313Z,5.80
2018-01-18T03:19:22.843Z,10.20
2018-01-18T03:21:49.948Z,4.17
2018-01-18T03:24:16.347Z,6.43
2018-01-18T03:26:42.777Z,10.10
2018-01-18T03:29:09.245Z,9.30
2018-01-18T03:31:35.694Z,23.43
2018-01-18T03:34:02.302Z,17.30
2018-01-18T03:36:28.762Z,4.90
2018-01-18T03:38:55.134Z,11.90
2018-01-18T03:41:21.707Z,11.17
2018-01-18T03:43:48.161Z,8.77
2018-01-18T03:46:14.629Z,9.57
2018-01-18T03:48:42.576Z,9.37
2018-01-18T03:51:09.330Z,16.77
2018-01-18T03:53:37.783Z,9.50
2018-01-18T03:56:04.958Z,8.87
2018-01-18T03:58:32.088Z,12.60
2018-01-18T04:00:58.882Z,10.90
2018-01-18T04:03:25.293Z,21.43
2018-01-18T04:05:51.691Z,21.43
2018-01-18T04:08:19.664Z,6.00
2018-01-18T04:10:47.794Z,18.20
2018-01-18T04:13:14.170Z,15.80
2018-01-18T04:15:40.642Z,11.23
2018-01-18T04:18:07.021Z,8.93
2018-01-18T04:20:33.795Z,13.00
2018-01-18T04:23:00.207Z,8.70
2018-01-18T04:25:26.803Z,14.10
2018-01-18T04:27:54.758Z,12.57
2018-01-18T04:30:21.224Z,11.33
2018-01-18T04:32:47.684Z,14.50
2018-01-18T04:35:14.157Z,12.00
2018-01-18T04:37:40.644Z,12.57
2018-01-18T04:40:07.848Z,9.23
2018-01-18T04:42:34.346Z,17.33
2018-01-18T04:45:00.781Z,15.50
2018-01-18T04:47:27.681Z,14.07
2018-01-18T04:49:54.085Z,14.17
2018-01-18T04:52:20.880Z,13.77
2018-01-18T04:54:47.257Z,8.40
2018-01-18T04:57:14.440Z,13.87
2018-01-18T04:59:40.977Z,17.70
2018-01-18T05:02:07.541Z,19.10
2018-01-18T05:04:34.013Z,23.50
2018-01-18T05:07:01.302Z,33.73
2018-01-18T05:09:28.553Z,14.53
2018-01-18T05:11:54.922Z,14.20
2018-01-18T05:14:21.835Z,18.80
2018-01-18T05:16:48.657Z,19.27
2018-01-18T05:19:15.148Z,27.93
2018-01-18T05:21:53.476Z,16.60
2018-01-18T05:24:22.354Z,19.60
2018-01-18T05:26:50.853Z,17.10
2018-01-18T05:29:18.766Z,9.30
2018-01-18T05:31:47.427Z,21.27
2018-01-18T05:34:16.738Z,13.70
2018-01-18T05:36:44.750Z,21.00
2018-01-18T05:39:19.595Z,21.63
2018-01-18T05:41:47.600Z,13.10
2018-01-18T05:44:15.415Z,18.43
2018-01-18T05:46:43.569Z,32.87
2018-01-18T05:49:10.093Z,20.50
2018-01-18T05:51:36.522Z,23.90
2018-01-18T05:54:03.522Z,13.03
2018-01-18T05:56:30.110Z,12.43
2018-01-18T05:58:57.506Z,14.70
2018-01-18T06:01:24.309Z,16.90
2018-01-18T06:03:51.906Z,22.23
2018-01-18T06:06:18.976Z,30.33
2018-01-18T06:08:45.826Z,28.97
2018-01-18T06:11:12.420Z,15.67
2018-01-18T06:13:39.766Z,27.17
2018-01-18T06:16:06.866Z,20.67
2018-01-18T06:18:35.092Z,11.07
2018-01-18T06:21:03.215Z,27.73
2018-01-18T06:23:30.897Z,13.10
2018-01-18T06:25:57.450Z,27.07
2018-01-18T06:28:24.084Z,22.00
2018-01-18T06:30:50.522Z,30.17
2018-01-18T06:33:17.765Z,37.17
2018-01-18T06:35:44.881Z,36.23
2018-01-18T06:38:12.044Z,20.80
2018-01-18T06:40:39.732Z,31.17
2018-01-18T06:43:07.113Z,27.03
2018-01-18T06:45:35.765Z,29.07
2018-01-18T06:48:02.412Z,15.73
2018-01-18T06:50:30.244Z,17.87
2018-01-18T06:52:57.831Z,21.87
2018-01-18T06:55:25.247Z,18.17
2018-01-18T06:57:52.433Z,22.43
2018-01-18T07:00:20.184Z,23.93
2018-01-18T07:02:47.605Z,21.43
2018-01-18T07:05:14.488Z,19.47
2018-01-18T07:07:42.053Z,20.33
2018-01-18T07:10:08.643Z,18.20
2018-01-18T07:12:35.339Z,8.77
2018-01-18T07:15:02.468Z,30.23
2018-01-18T07:17:29.033Z,24.17
2018-01-18T07:19:56.527Z,31.63
2018-01-18T07:22:23.577Z,28.10
2018-01-18T07:24:51.858Z,20.47
2018-01-18T07:27:18.864Z,18.40
2018-01-18T07:29:46.120Z,27.63
2018-01-18T07:32:12.644Z,13.93
2018-01-18T07:34:39.652Z,20.37
2018-01-18T07:37:06.435Z,22.27
2018-01-18T07:39:33.659Z,19.63
2018-01-18T07:42:01.178Z,29.63
2018-01-18T07:44:27.688Z,27.50
2018-01-18T07:46:54.475Z,43.97
2018-01-18T07:49:21.708Z,19.93
2018-01-18T07:51:48.150Z,28.53
2018-01-18T07:54:15.791Z,33.73
2018-01-18T07:56:42.974Z,33.90
2018-01-18T07:59:09.352Z,18.37
2018-01-18T08:01:35.849Z,28.20
2018-01-18T08:04:09.675Z,17.17
2018-01-18T08:06:36.871Z,29.30
2018-01-18T08:09:04.386Z,21.07
2018-01-18T08:11:31.510Z,35.57
2018-01-18T08:13:57.930Z,32.10
2018-01-18T08:16:24.714Z,26.77
2018-01-18T08:18:52.232Z,25.63
2018-01-18T08:21:18.764Z,16.53
2018-01-18T08:23:45.931Z,13.93
2018-01-18T08:26:12.586Z,28.60
2018-01-18T08:28:39.505Z,23.43
2018-01-18T08:31:06.708Z,26.50
2018-01-18T08:33:34.804Z,16.53
2018-01-18T08:36:01.297Z,29.60
2018-01-18T08:38:27.825Z,30.23
2018-01-18T08:40:54.290Z,30.17
2018-01-18T08:43:22.420Z,37.40
2018-01-18T08:45:49.205Z,38.93
2018-01-18T08:48:16.392Z,28.83
2018-01-18T08:50:44.474Z,25.90
2018-01-18T08:53:12.561Z,23.30
2018-01-18T08:55:41.012Z,34.47
2018-01-18T08:58:08.941Z,22.87
2018-01-18T09:00:36.769Z,33.60
2018-01-18T09:03:03.141Z,26.37
2018-01-18T09:05:29.511Z,26.83
2018-01-18T09:07:57.580Z,20.87
2018-01-18T09:10:25.773Z,30.83
2018-01-18T09:12:52.289Z,23.57
2018-01-18T09:15:20.348Z,39.90
2018-01-18T09:17:48.500Z,19.90
2018-01-18T09:20:15.040Z,35.07
2018-01-18T09:22:41.499Z,26.90
2018-01-18T09:25:07.900Z,24.00
2018-01-18T09:27:36.136Z,31.87
2018-01-18T09:30:03.800Z,30.73
2018-01-18T09:32:31.977Z,26.00
2018-01-18T09:34:59.906Z,42.80
2018-01-18T09:37:27.158Z,35.53
2018-01-18T09:39:53.566Z,21.00
2018-01-18T09:42:21.769Z,26.67
2018-01-18T09:44:48.617Z,24.17
2018-01-18T09:47:15.080Z,27.87
2018-01-18T09:49:43.187Z,40.17
2018-01-18T09:52:11.277Z,30.17
2018-01-18T09:54:39.905Z,18.80
2018-01-18T09:57:08.070Z,21.63
2018-01-18T09:59:36.098Z,37.57
2018-01-18T10:02:02.504Z,21.40
2018-01-18T10:04:30.627Z,32.57
2018-01-18T10:06:58.726Z,15.23
2018-01-18T10:09:26.888Z,24.63
2018-01-18T10:11:53.250Z,30.80
2018-01-18T10:14:20.327Z,27.00
2018-01-18T10:16:48.382Z,20.70
2018-01-18T10:19:15.588Z,27.67
2018-01-18T10:21:42.475Z,34.43
2018-01-18T10:24:11.276Z,15.50
2018-01-18T10:26:39.485Z,22.30
2018-01-18T10:29:07.058Z,21.20
2018-01-18T10:31:34.711Z,30.40
2018-01-18T10:34:01.617Z,28.97
2018-01-18T10:36:28.816Z,25.30
2018-01-18T10:38:55.617Z,21.73
2018-01-18T10:41:22.889Z,23.67
2018-01-18T10:43:49.424Z,13.10
2018-01-18T10:46:16.510Z,23.63
2018-01-18T10:48:43.046Z,28.43
2018-01-18T10:51:09.515Z,27.97
2018-01-18T10:53:35.976Z,18.50
2018-01-18T10:56:02.765Z,26.13
2018-01-18T10:58:30.378Z,25.97
2018-01-18T11:00:57.636Z,22.10
2018-01-18T11:03:25.686Z,23.97
2018-01-18T11:05:52.920Z,15.93
2018-01-18T11:08:19.514Z,20.03
2018-01-18T11:10:47.675Z,19.67
2018-01-18T11:13:14.856Z,11.43
2018-01-18T11:15:41.642Z,15.33
2018-01-18T11:18:09.180Z,17.77
2018-01-18T11:20:35.525Z,16.83
2018-01-18T11:23:03.586Z,16.57
2018-01-18T11:25:30.727Z,19.53
2018-01-18T11:27:59.107Z,25.13
2018-01-18T11:30:26.642Z,13.27
2018-01-18T11:32:54.765Z,23.97
2018-01-18T11:35:21.309Z,14.90
2018-01-18T11:37:47.867Z,18.20
2018-01-18T11:40:14.763Z,11.97
2018-01-18T11:42:41.874Z,17.03
2018-01-18T11:45:08.308Z,6.53
2018-01-18T11:47:35.561Z,11.30
2018-01-18T11:50:01.972Z,12.63
2018-01-18T11:52:28.908Z,11.53
2018-01-18T11:54:55.491Z,8.20
2018-01-18T11:57:22.276Z,19.07
2018-01-18T11:59:48.877Z,9.40
2018-01-18T12:02:16.545Z,13.07
2018-01-18T12:04:42.962Z,7.90
2018-01-18T12:07:10.161Z,13.03
2018-01-18T12:09:37.105Z,4.80
2018-01-18T12:12:03.786Z,9.40
2018-01-18T12:14:30.932Z,13.80
2018-01-18T12:16:57.356Z,18.07
2018-01-18T12:19:23.789Z,6.23
2018-01-18T12:21:51.303Z,9.03
2018-01-18T12:24:17.685Z,13.73
2018-01-18T12:26:44.090Z,6.83
2018-01-18T12:29:11.593Z,11.33
2018-01-18T12:31:38.412Z,6.20
2018-01-18T12:34:04.793Z,5.10
2018-01-18T12:36:31.912Z,9.50
2018-01-18T12:38:58.412Z,9.80
2018-01-18T12:41:25.509Z,4.40
2018-01-18T12:43:51.953Z,19.33
2018-01-18T12:46:18.529Z,7.80
2018-01-18T12:48:46.464Z,9.10
2018-01-18T12:51:14.602Z,5.37
2018-01-18T12:53:42.221Z,11.50
2018-01-18T12:56:09.202Z,5.33
2018-01-18T12:58:35.707Z,7.47
2018-01-18T13:01:03.264Z,4.53
2018-01-18T13:03:31.000Z,10.13
2018-01-18T13:05:57.565Z,4.77
2018-01-18T13:08:24.885Z,4.03
2018-01-18T13:10:52.022Z,5.90
2018-01-18T13:13:21.274Z,5.77
2018-01-18T13:15:47.696Z,3.60
2018-01-18T13:18:14.918Z,10.13
2018-01-18T13:20:41.475Z,4.50
2018-01-18T13:23:09.118Z,3.90
2018-01-18T13:25:36.507Z,5.30
2018-01-18T13:28:04.071Z,5.10
2018-01-18T13:30:30.596Z,9.97
2018-01-18T13:32:57.544Z,7.30
2018-01-18T13:35:24.619Z,4.10
2018-01-18T13:37:51.104Z,3.80
2018-01-18T13:40:18.153Z,8.27
2018-01-18T13:42:46.522Z,3.90
2018-01-18T13:45:14.550Z,4.83
2018-01-18T13:47:40.997Z,5.50
2018-01-18T13:50:07.632Z,4.63
2018-01-18T13:52:34.164Z,5.90
2018-01-18T13:55:00.906Z,4.37
2018-01-18T13:57:27.337Z,3.00
2018-01-18T13:59:53.775Z,8.03
2018-01-18T14:02:21.093Z,3.30
2018-01-18T14:04:47.552Z,3.13
2018-01-18T14:07:14.093Z,3.50
2018-01-18T14:09:42.214Z,3.17
2018-01-18T14:12:09.599Z,5.40
2018-01-18T14:14:37.298Z,5.13
2018-01-18T14:17:04.537Z,4.20
2018-01-18T14:19:31.819Z,4.17
2018-01-18T14:21:58.886Z,10.33
2018-01-18T14:24:25.861Z,9.80
2018-01-18T14:26:52.812Z,3.47
2018-01-18T14:29:19.455Z,4.27
2018-01-18T14:31:48.139Z,4.50
2018-01-18T14:34:15.504Z,5.33
2018-01-18T14:36:43.155Z,5.10
2018-01-18T14:39:11.324Z,5.23
2018-01-18T14:41:37.881Z,4.60
2018-01-18T14:44:05.580Z,7.93
2018-01-18T14:46:33.322Z,5.77
2018-01-18T14:49:00.558Z,5.30
2018-01-18T14:51:28.418Z,6.07
2018-01-18T14:53:56.336Z,6.60
2018-01-18T14:56:22.938Z,9.47
2018-01-18T14:58:49.994Z,10.03
2018-01-18T15:01:18.178Z,15.37
2018-01-18T15:03:45.399Z,14.10
2018-01-18T15:06:12.325Z,17.90
2018-01-18T15:08:39.961Z,16.90
2018-01-18T15:11:06.575Z,18.73
2018-01-18T15:13:33.690Z,19.67
2018-01-18T15:16:01.476Z,18.97
2018-01-18T15:18:28.652Z,9.50
2018-01-18T15:20:57.282Z,20.93
2018-01-18T15:23:23.714Z,19.00
2018-01-18T15:25:50.199Z,20.07
2018-01-18T15:28:16.583Z,18.13
2018-01-18T15:30:43.036Z,12.23
2018-01-18T15:33:10.623Z,10.70
2018-01-18T15:35:37.476Z,13.40
2018-01-18T15:38:04.075Z,11.30
2018-01-18T15:40:30.582Z,11.27
2018-01-18T15:42:57.592Z,10.83
2018-01-18T15:45:24.151Z,13.80
2018-01-18T15:47:50.596Z,8.60
2018-01-18T15:50:17.092Z,3.83
2018-01-18T15:52:43.995Z,17.20
2018-01-18T15:55:10.907Z,13.03
2018-01-18T15:57:37.682Z,7.60
2018-01-18T16:00:04.545Z,8.90
2018-01-18T16:02:31.092Z,8.70
2018-01-18T16:04:59.746Z,7.50
2018-01-18T16:07:26.726Z,5.27
2018-01-18T16:09:54.162Z,5.93
2018-01-18T16:12:22.917Z,5.17
2018-01-18T16:14:50.823Z,6.10
2018-01-18T16:17:17.529Z,4.83
2018-01-18T16:19:44.464Z,6.50
2018-01-18T16:22:12.360Z,4.47
2018-01-18T16:24:39.280Z,7.10
2018-01-18T16:27:06.443Z,8.63
2018-01-18T16:29:34.710Z,4.37
2018-01-18T16:32:01.765Z,4.13
2018-01-18T16:34:29.754Z,8.00
2018-01-18T16:36:58.296Z,3.27
2018-01-18T16:39:25.643Z,3.30
2018-01-18T16:41:54.771Z,5.37
2018-01-18T16:44:23.297Z,8.00
2018-01-18T16:46:49.785Z,14.43
2018-01-18T16:49:17.827Z,6.87
2018-01-18T16:51:44.347Z,5.90
2018-01-18T16:54:11.465Z,4.33
2018-01-18T16:56:40.044Z,5.23
2018-01-18T16:59:07.016Z,3.67
2018-01-18T17:01:34.858Z,6.20
2018-01-18T17:04:02.092Z,8.93
2018-01-18T17:06:29.801Z,4.97
2018-01-18T17:08:57.024Z,2.63
2018-01-18T17:11:24.717Z,4.83
2018-01-18T17:13:52.360Z,6.67
2018-01-18T17:16:20.997Z,16.03
2018-01-18T17:18:48.199Z,11.10
2018-01-18T17:21:15.064Z,4.93
2018-01-18T17:23:41.656Z,6.13
2018-01-18T17:26:08.658Z,2.60
2018-01-18T17:28:35.091Z,4.33
2018-01-18T17:31:01.564Z,8.00
2018-01-18T17:33:29.229Z,2.63
2018-01-18T17:35:55.800Z,5.90
2018-01-18T17:38:23.517Z,4.20
2018-01-18T17:40:50.158Z,4.93
2018-01-18T17:43:18.390Z,2.63
2018-01-18T17:45:45.513Z,4.77
2018-01-18T17:48:12.696Z,6.13
2018-01-18T17:50:39.348Z,3.17
2018-01-18T17:53:07.428Z,8.73
2018-01-18T17:55:33.842Z,5.90
2018-01-18T17:58:00.956Z,4.07
2018-01-18T18:00:27.749Z,5.77
2018-01-18T18:02:56.074Z,4.70
2018-01-18T18:05:22.708Z,3.97
2018-01-18T18:07:50.600Z,7.43
2018-01-18T18:10:17.806Z,6.50
2018-01-18T18:12:45.203Z,5.30
2018-01-18T18:15:11.710Z,3.87
2018-01-18T18:17:38.164Z,6.70
2018-01-18T18:20:06.692Z,9.67
2018-01-18T18:22:45.383Z,6.37
2018-01-18T18:32:59.821Z,7.67
2018-01-18T18:51:12.201Z,3.37
2018-01-18T18:53:42.167Z,7.43
2018-01-18T19:01:18.810Z,7.10
2018-01-18T19:03:50.279Z,4.70
2018-01-18T19:34:28.068Z,9.07
2018-01-18T19:42:24.711Z,7.40
2018-01-18T19:47:28.068Z,8.67
2018-01-18T19:49:57.701Z,8.37
2018-01-18T20:15:37.007Z,9.80
2018-01-18T20:20:39.081Z,16.53
2018-01-18T20:28:12.494Z,15.30
2018-01-18T20:33:19.342Z,22.60
2018-01-18T20:35:52.528Z,19.80
2018-01-18T20:38:24.792Z,16.00
2018-01-18T20:43:31.044Z,25.83
2018-01-18T20:56:15.516Z,14.37
2018-01-18T21:03:51.423Z,11.70
2018-01-18T21:06:23.262Z,13.23
2018-01-18T21:16:29.202Z,15.43
2018-01-18T21:19:00.207Z,17.23
2018-01-18T21:36:46.718Z,13.50
2018-01-18T21:39:17.664Z,15.40
2018-01-18T21:52:04.521Z,13.53
2018-01-18T21:59:40.490Z,24.60
2018-01-18T22:20:06.802Z,43.80
2018-01-18T22:25:06.691Z,31.90
2018-01-18T22:35:13.619Z,29.73
2018-01-18T22:37:45.644Z,19.43
2018-01-18T22:40:15.232Z,9.77
2018-01-18T22:42:46.513Z,16.20
2018-01-18T22:50:21.666Z,19.40
2018-01-18T23:00:22.902Z,16.70
2018-01-18T23:07:54.958Z,29.67
2018-01-18T23:10:22.363Z,21.63
2018-01-18T23:17:53.426Z,23.80
2018-01-18T23:27:57.919Z,17.20
2018-01-18T23:40:38.468Z,21.20
2018-01-18T23:45:42.063Z,23.43
2018-01-18T23:48:09.866Z,16.37
2018-01-18T23:50:39.028Z,20.60
2018-01-18T23:53:06.933Z,25.33
2018-01-18T23:55:36.818Z,24.87
2018-01-18T23:58:04.782Z,35.03
